Time;durP1;ratioP1;P1;durP2;ratioP2;P2;SDS_P1;SDS_P2;PMS_P1;PMS_P2;Temp;Humidity;BMP_temperature;BMP_pressure;BME280_temperature;BME280_humidity;BME280_pressure;Samples;Min_cycle;Max_cycle;Signal;HPM_P1;HPM_P2
2022/06/09 00:01:18;;;;;;;18.75;3.83;;;;;;;13.32;100.00;100797.97;5029703;28;20056;-67
2022/06/09 00:03:49;;;;;;;9.43;3.65;;;;;;;13.30;100.00;100803.38;5033155;28;20033;-67
2022/06/09 00:06:16;;;;;;;14.48;3.58;;;;;;;13.27;100.00;100796.44;5032865;28;20124;-68
2022/06/09 00:08:46;;;;;;;13.50;3.30;;;;;;;13.30;100.00;100813.13;5032728;28;20112;-68
2022/06/09 00:11:16;;;;;;;15.98;3.90;;;;;;;13.32;100.00;100801.47;5034553;28;20047;-68
2022/06/09 00:13:43;;;;;;;17.63;3.55;;;;;;;13.37;100.00;100812.72;5034679;28;20066;-68
2022/06/09 00:16:10;;;;;;;14.95;3.55;;;;;;;13.43;100.00;100822.19;5033615;28;20022;-68
2022/06/09 00:18:36;;;;;;;13.13;2.70;;;;;;;13.48;100.00;100817.44;5033694;28;20029;-68
2022/06/09 00:21:02;;;;;;;12.48;3.15;;;;;;;13.53;100.00;100815.38;5034644;28;20521;-68
2022/06/09 00:23:27;;;;;;;14.00;2.90;;;;;;;13.57;100.00;100821.38;5031644;28;20037;-67
2022/06/09 00:25:53;;;;;;;16.33;3.30;;;;;;;13.57;100.00;100826.72;5032167;28;20024;-68
2022/06/09 00:28:18;;;;;;;10.18;2.70;;;;;;;13.57;100.00;100824.06;5032166;28;20033;-68
2022/06/09 00:30:44;;;;;;;10.38;3.00;;;;;;;13.58;100.00;100818.63;5030957;28;20061;-68
2022/06/09 00:33:09;;;;;;;8.15;3.38;;;;;;;13.57;100.00;100821.38;5015741;28;20061;-68
2022/06/09 00:35:34;;;;;;;11.68;2.78;;;;;;;13.59;100.00;100831.00;5032445;28;20493;-68
2022/06/09 00:38:00;;;;;;;8.63;2.47;;;;;;;13.58;100.00;100831.94;5032353;28;20021;-68
2022/06/09 00:40:26;;;;;;;11.52;2.80;;;;;;;13.54;100.00;100833.06;5034206;28;20033;-68
2022/06/09 00:42:51;;;;;;;10.00;3.22;;;;;;;13.52;100.00;100837.59;5034282;28;20109;-68
2022/06/09 00:45:39;;;;;;;9.88;2.60;;;;;;;13.48;100.00;100835.19;5029941;28;20038;-66
2022/06/09 00:48:23;;;;;;;13.02;3.00;;;;;;;13.44;100.00;100847.84;5021133;28;20026;-66
2022/06/09 00:51:11;;;;;;;12.52;2.72;;;;;;;13.37;100.00;100839.31;5014495;28;20057;-68
2022/06/09 00:53:40;;;;;;;14.05;3.22;;;;;;;13.36;100.00;100850.03;5011917;28;20045;-67
2022/06/09 00:56:08;;;;;;;10.15;2.80;;;;;;;13.34;100.00;100846.59;5032308;28;20017;-67
2022/06/09 00:58:38;;;;;;;7.57;2.50;;;;;;;13.32;100.00;100844.00;5031025;28;20031;-67
2022/06/09 01:01:07;;;;;;;11.45;2.92;;;;;;;13.33;100.00;100845.72;5029500;28;20017;-69
2022/06/09 01:03:40;;;;;;;12.25;2.75;;;;;;;13.34;100.00;100850.13;5032458;28;20113;-68
2022/06/09 01:06:12;;;;;;;7.95;2.40;;;;;;;13.33;100.00;100852.88;5032506;28;20061;-68
2022/06/09 01:08:43;;;;;;;;;;;;;;;13.31;100.00;100855.59;5033920;28;20033;-68
2022/06/09 01:11:08;;;;;;;11.13;2.65;;;;;;;13.29;100.00;100857.50;5031808;28;19909;-67
2022/06/09 01:13:34;;;;;;;12.13;2.72;;;;;;;13.27;100.00;100865.56;5015682;28;20160;-68
2022/06/09 01:16:15;;;;;;;9.27;2.63;;;;;;;13.23;100.00;100866.66;5031362;28;20432;-67
2022/06/09 01:19:08;;;;;;;7.13;2.28;;;;;;;13.23;100.00;100866.66;5047892;28;20030;-69
2022/06/09 01:21:54;;;;;;;12.57;2.70;;;;;;;13.23;100.00;100865.81;5032935;28;20051;-69
2022/06/09 01:24:37;;;;;;;11.95;2.80;;;;;;;13.22;100.00;100866.75;5033439;28;20029;-69
2022/06/09 01:27:13;;;;;;;10.82;2.70;;;;;;;13.19;100.00;100870.44;5031903;28;20125;-67
2022/06/09 01:29:41;;;;;;;15.48;2.83;;;;;;;13.16;100.00;100877.72;5033282;28;20100;-67
2022/06/09 01:32:17;;;;;;;10.95;2.50;;;;;;;13.10;100.00;100877.13;5032955;28;20025;-68
2022/06/09 01:35:05;;;;;;;12.85;2.83;;;;;;;13.06;100.00;100877.38;5033295;28;20558;-68
2022/06/09 01:37:35;;;;;;;11.55;2.75;;;;;;;13.09;100.00;100879.88;5032781;28;20027;-68
2022/06/09 01:40:04;;;;;;;10.93;2.60;;;;;;;13.06;100.00;100883.56;5032587;28;20044;-68
2022/06/09 01:42:29;;;;;;;9.20;2.50;;;;;;;13.09;100.00;100882.53;5030354;28;20030;-68
2022/06/09 01:45:05;;;;;;;10.82;2.53;;;;;;;13.11;100.00;100880.66;5032958;28;20026;-68
2022/06/09 01:47:38;;;;;;;9.05;2.47;;;;;;;13.15;100.00;100899.97;5033575;28;20022;-67
2022/06/09 01:50:09;;;;;;;6.47;2.40;;;;;;;13.17;100.00;100895.41;5032769;28;20029;-67
2022/06/09 01:52:36;;;;;;;8.75;2.60;;;;;;;13.23;100.00;100882.63;5031439;28;20029;-67
2022/06/09 01:55:04;;;;;;;15.25;3.08;;;;;;;13.30;100.00;100891.13;5032493;28;20029;-67
2022/06/09 01:57:34;;;;;;;8.27;2.75;;;;;;;13.32;100.00;100889.22;5031859;28;20021;-67
2022/06/09 02:00:06;;;;;;;10.65;2.65;;;;;;;13.33;100.00;100893.59;5031550;28;20021;-68
2022/06/09 02:02:36;;;;;;;8.95;2.60;;;;;;;13.34;100.00;100897.13;5031838;28;20029;-68
2022/06/09 02:05:07;;;;;;;9.93;2.55;;;;;;;13.35;100.00;100893.50;5021605;28;20391;-67
2022/06/09 02:07:33;;;;;;;7.93;2.20;;;;;;;13.38;100.00;100901.38;5032740;28;20045;-68
2022/06/09 02:10:14;;;;;;;10.32;2.58;;;;;;;13.40;100.00;100891.50;5030087;28;20109;-67
2022/06/09 02:12:40;;;;;;;12.93;2.40;;;;;;;13.44;100.00;100891.25;5031369;28;20029;-67
2022/06/09 02:15:08;;;;;;;12.80;2.95;;;;;;;13.48;100.00;100901.69;5032391;28;20355;-68
2022/06/09 02:17:45;;;;;;;8.38;2.13;;;;;;;13.52;100.00;100897.94;5032246;28;20029;-68
2022/06/09 02:20:13;;;;;;;7.45;2.25;;;;;;;13.54;100.00;100901.34;5031787;28;20013;-68
2022/06/09 02:22:38;;;;;;;7.47;2.05;;;;;;;13.56;100.00;100910.97;5031962;28;20029;-68
2022/06/09 02:25:04;;;;;;;7.88;2.30;;;;;;;13.57;100.00;100902.06;5031001;28;20026;-68
2022/06/09 02:27:29;;;;;;;11.45;2.55;;;;;;;13.59;100.00;100909.94;5029993;28;20112;-68
2022/06/09 02:29:54;;;;;;;9.55;2.28;;;;;;;13.58;100.00;100909.09;5031003;28;20104;-68
2022/06/09 02:32:20;;;;;;;9.70;2.08;;;;;;;13.57;100.00;100912.69;5030447;28;20465;-68
2022/06/09 02:34:45;;;;;;;11.10;2.50;;;;;;;13.56;100.00;100920.78;5030539;28;20029;-68
2022/06/09 02:37:10;;;;;;;7.80;2.38;;;;;;;13.52;100.00;100917.41;5030720;28;20544;-68
2022/06/09 02:39:36;;;;;;;7.65;2.35;;;;;;;13.54;100.00;100927.97;5030756;28;20446;-68
2022/06/09 02:42:03;;;;;;;9.75;2.33;;;;;;;13.55;100.00;100924.38;5030720;28;20083;-68
2022/06/09 02:44:28;;;;;;;13.27;2.53;;;;;;;13.58;100.00;100926.84;5031492;28;20042;-68
2022/06/09 02:46:53;;;;;;;7.97;2.40;;;;;;;13.58;100.00;100934.81;5032147;28;20026;-68
2022/06/09 02:49:19;;;;;;;10.77;2.20;;;;;;;13.60;100.00;100936.44;5032049;28;20477;-69
2022/06/09 02:51:44;;;;;;;11.35;2.78;;;;;;;13.67;100.00;100938.78;5031792;28;20030;-68
2022/06/09 02:54:12;;;;;;;12.32;2.40;;;;;;;13.72;100.00;100940.25;5031650;28;20091;-67
2022/06/09 02:56:39;;;;;;;9.25;2.20;;;;;;;13.75;100.00;100939.22;5031828;28;20026;-68
2022/06/09 02:59:04;;;;;;;9.52;2.20;;;;;;;13.76;100.00;100941.78;5031524;28;20033;-68
2022/06/09 03:01:29;;;;;;;10.45;2.15;;;;;;;13.80;100.00;100952.25;5014051;28;20155;-67
2022/06/09 03:03:55;;;;;;;6.32;2.05;;;;;;;13.83;100.00;100947.63;5031621;28;20389;-67
2022/06/09 03:06:21;;;;;;;8.02;2.50;;;;;;;13.85;100.00;100952.84;5031644;28;20530;-67
2022/06/09 03:08:47;;;;;;;10.82;2.40;;;;;;;13.88;100.00;100958.84;5031095;28;20037;-68
2022/06/09 03:11:13;;;;;;;7.75;2.20;;;;;;;13.90;100.00;100956.09;5031117;28;20029;-64
2022/06/09 03:13:40;;;;;;;5.60;2.00;;;;;;;13.91;100.00;100960.47;5030274;28;20029;-68
2022/06/09 03:16:08;;;;;;;7.85;1.90;;;;;;;13.94;100.00;100968.31;5031299;28;20596;-68
2022/06/09 03:18:33;;;;;;;7.22;2.40;;;;;;;13.98;100.00;100963.66;5031482;28;20029;-68
2022/06/09 03:20:59;;;;;;;8.63;2.10;;;;;;;13.99;100.00;100962.72;4997359;28;20083;-68
2022/06/09 03:23:24;;;;;;;9.68;2.40;;;;;;;14.00;100.00;100973.28;5031253;28;20026;-65
2022/06/09 03:25:50;;;;;;;6.63;2.10;;;;;;;14.02;100.00;100970.53;5031204;28;20033;-68
2022/06/09 03:28:16;;;;;;;7.63;2.28;;;;;;;14.03;100.00;100973.09;5030257;28;20030;-68
2022/06/09 03:30:41;;;;;;;7.97;2.17;;;;;;;14.02;100.00;100981.19;5031275;28;20484;-68
2022/06/09 03:33:07;;;;;;;7.88;2.22;;;;;;;14.00;100.00;100983.06;5031334;28;20076;-68
2022/06/09 03:35:33;;;;;;;6.75;2.20;;;;;;;14.03;100.00;100989.09;5028767;28;20037;-68
2022/06/09 03:37:59;;;;;;;7.25;2.45;;;;;;;14.05;100.00;100999.63;5032054;28;20040;-69
2022/06/09 03:40:27;;;;;;;5.80;2.20;;;;;;;14.10;100.00;101002.91;5034405;28;20033;-69
2022/06/09 03:42:52;;;;;;;6.15;1.92;;;;;;;14.15;100.00;101002.66;5035140;28;20013;-69
2022/06/09 03:45:17;;;;;;;5.97;1.90;;;;;;;14.17;100.00;101006.06;5017245;28;20040;-69
2022/06/09 03:47:44;;;;;;;9.52;2.20;;;;;;;14.17;100.00;101022.91;5032371;28;20033;-67
2022/06/09 03:50:22;;;;;;;11.10;2.05;;;;;;;14.18;100.00;101023.75;5031247;28;20037;-67
2022/06/09 03:52:48;;;;;;;6.28;1.90;;;;;;;14.17;100.00;101020.25;5035061;28;20459;-67
2022/06/09 03:55:14;;;;;;;5.32;1.83;;;;;;;14.20;100.00;101017.41;5033518;28;20436;-68
2022/06/09 03:57:40;;;;;;;7.93;2.35;;;;;;;14.19;100.00;101022.81;5015483;28;20164;-68
2022/06/09 04:00:07;;;;;;;8.25;1.70;;;;;;;14.20;100.00;101024.53;5015365;28;20029;-68
2022/06/09 04:02:33;;;;;;;3.85;1.67;;;;;;;14.25;100.00;101023.31;5029690;28;20041;-68
2022/06/09 04:04:59;;;;;;;4.30;1.70;;;;;;;14.32;100.00;101030.97;5034990;28;20057;-68
2022/06/09 04:07:24;;;;;;;5.03;1.80;;;;;;;14.36;100.00;101044.03;5016965;28;20050;-68
2022/06/09 04:09:50;;;;;;;7.25;2.00;;;;;;;14.40;100.00;101036.72;5033576;28;20031;-67
2022/06/09 04:12:15;;;;;;;8.60;2.05;;;;;;;14.43;100.00;101042.72;5033304;28;20465;-68
2022/06/09 04:14:41;;;;;;;7.03;1.80;;;;;;;14.48;100.00;101041.63;5033101;28;20097;-68
2022/06/09 04:17:06;;;;;;;11.75;1.83;;;;;;;14.58;100.00;101056.13;5033098;28;20033;-67
2022/06/09 04:19:31;;;;;;;8.18;2.10;;;;;;;14.72;100.00;101050.84;5033915;28;20421;-69
2022/06/09 04:21:57;;;;;;;5.85;1.75;;;;;;;14.80;100.00;101050.41;5033293;28;20397;-68
2022/06/09 04:24:22;;;;;;;5.75;1.80;;;;;;;14.91;100.00;101057.75;5016748;28;20369;-68
2022/06/09 04:26:47;;;;;;;5.65;2.03;;;;;;;15.06;100.00;101059.53;5031769;28;20112;-68
2022/06/09 04:29:13;;;;;;;9.30;1.77;;;;;;;15.19;100.00;101066.75;5034329;28;20481;-68
2022/06/09 04:31:41;;;;;;;6.55;1.95;;;;;;;15.17;100.00;101072.19;5032799;28;20037;-68
2022/06/09 04:34:07;;;;;;;6.18;1.90;;;;;;;15.14;100.00;101071.50;5034296;28;20029;-68
2022/06/09 04:36:33;;;;;;;6.85;2.28;;;;;;;15.11;100.00;101066.38;5032583;28;20133;-68
2022/06/09 04:38:59;;;;;;;6.78;1.73;;;;;;;15.02;100.00;101076.63;5033550;28;20108;-68
2022/06/09 04:41:24;;;;;;;6.88;2.22;;;;;;;15.03;100.00;101082.84;5034198;28;20057;-69
2022/06/09 04:43:50;;;;;;;7.18;2.00;;;;;;;15.07;100.00;101082.53;5013246;28;20100;-69
2022/06/09 04:46:19;;;;;;;7.00;2.25;;;;;;;15.14;100.00;101082.19;5033942;28;20029;-68
2022/06/09 04:48:44;;;;;;;6.53;1.90;;;;;;;15.15;100.00;101082.09;5031831;28;20421;-68
2022/06/09 04:51:12;;;;;;;5.15;1.83;;;;;;;15.26;100.00;101097.47;5029957;28;20515;-68
2022/06/09 04:53:38;;;;;;;6.07;1.80;;;;;;;15.26;100.00;101086.78;5012165;28;20022;-68
2022/06/09 04:56:04;;;;;;;7.50;1.90;;;;;;;15.26;100.00;101101.94;5014170;28;20088;-68
2022/06/09 04:58:29;;;;;;;6.88;2.10;;;;;;;15.21;100.00;101107.56;5023275;28;20068;-68
2022/06/09 05:00:55;;;;;;;7.65;2.95;;;;;;;15.30;100.00;101116.81;5016505;28;20025;-68
2022/06/09 05:03:21;;;;;;;10.18;2.30;;;;;;;15.21;100.00;101121.75;5014027;28;20025;-68
2022/06/09 05:05:48;;;;;;;7.15;1.98;;;;;;;15.23;100.00;101127.84;5030267;28;20043;-67
2022/06/09 05:08:14;;;;;;;5.93;2.20;;;;;;;15.22;100.00;101134.13;5032060;28;20045;-68
2022/06/09 05:10:41;;;;;;;5.13;2.00;;;;;;;15.17;100.00;101135.38;5026930;28;20064;-68
2022/06/09 05:13:07;;;;;;;6.93;2.10;;;;;;;15.11;100.00;101141.06;5032485;28;20025;-67
2022/06/09 05:15:42;;;;;;;4.80;1.88;;;;;;;15.06;100.00;101150.19;5024633;28;20034;-68
2022/06/09 05:18:08;;;;;;;4.15;1.88;;;;;;;14.98;100.00;101163.09;5025184;28;20041;-67
2022/06/09 05:20:33;;;;;;;6.78;1.98;;;;;;;14.87;100.00;101169.06;5031868;28;20029;-67
2022/06/09 05:22:58;;;;;;;7.53;2.40;;;;;;;14.71;100.00;101174.41;5032219;28;20037;-69
2022/06/09 05:25:24;;;;;;;10.60;2.70;;;;;;;14.58;100.00;101192.03;5031769;28;20481;-69
2022/06/09 05:27:50;;;;;;;6.78;2.42;;;;;;;14.46;100.00;101185.56;5025070;28;20112;-69
2022/06/09 05:30:20;;;;;;;6.60;2.53;;;;;;;14.29;100.00;101190.97;5031388;28;20113;-69
2022/06/09 05:32:46;;;;;;;6.35;2.58;;;;;;;14.22;100.00;101196.63;5033270;28;20029;-68
2022/06/09 05:35:11;;;;;;;7.00;2.83;;;;;;;14.05;100.00;101204.69;5030712;28;20025;-68
2022/06/09 05:45:49;;;;;;;9.52;3.63;;;;;;;13.58;100.00;101216.88;5020332;28;20167;-68
2022/06/09 05:48:14;;;;;;;7.78;3.28;;;;;;;13.51;100.00;101211.00;5014495;28;20120;-68
2022/06/09 05:50:40;;;;;;;7.50;3.35;;;;;;;13.46;100.00;101213.03;5031215;28;20063;-68
2022/06/09 05:53:05;;;;;;;6.38;3.33;;;;;;;13.42;100.00;101209.66;5032798;28;20104;-68
2022/06/09 05:55:31;;;;;;;9.98;3.80;;;;;;;13.41;100.00;101223.06;5031142;28;20033;-68
2022/06/09 05:57:56;;;;;;;10.00;3.90;;;;;;;13.40;100.00;101229.31;5032280;28;20041;-68
2022/06/09 06:00:21;;;;;;;8.27;3.60;;;;;;;13.41;100.00;101233.69;5030802;28;20033;-68
2022/06/09 06:02:47;;;;;;;12.70;4.20;;;;;;;13.39;100.00;101236.44;5015113;28;20033;-68
2022/06/09 06:06:33;;;;;;;9.38;4.15;;;;;;;13.41;100.00;101242.56;5030897;28;20026;-68
2022/06/09 06:07:58;;;;;;;13.32;4.68;;;;;;;13.49;100.00;101244.84;5031724;28;20417;-68
2022/06/09 06:10:23;;;;;;;10.35;3.70;;;;;;;13.50;100.00;101248.34;5032530;28;20030;-69
2022/06/09 06:12:49;;;;;;;8.95;3.70;;;;;;;13.50;100.00;101251.84;5031220;28;20040;-67
2022/06/09 06:15:14;;;;;;;8.40;3.72;;;;;;;13.53;100.00;101254.38;5030607;28;20029;-68
2022/06/09 06:17:39;;;;;;;7.45;3.70;;;;;;;13.60;100.00;101268.22;5025875;28;20460;-68
2022/06/09 06:20:05;;;;;;;7.75;3.30;;;;;;;13.66;100.00;101265.25;5029969;28;20038;-69
2022/06/09 06:22:31;;;;;;;8.75;3.50;;;;;;;13.68;100.00;101263.38;5014598;28;20033;-69
2022/06/09 06:24:59;;;;;;;7.57;3.55;;;;;;;13.71;100.00;101273.88;5031014;28;20028;-68
2022/06/09 06:27:25;;;;;;;7.55;3.42;;;;;;;13.70;100.00;101271.28;5032123;28;20449;-69
2022/06/09 06:29:50;;;;;;;6.90;3.22;;;;;;;13.74;100.00;101273.69;5032159;28;20060;-68
2022/06/09 06:32:16;;;;;;;9.38;3.40;;;;;;;13.80;100.00;101269.88;5031806;28;20040;-69
2022/06/09 06:34:41;;;;;;;10.50;3.95;;;;;;;13.87;100.00;101281.91;5031837;28;20029;-69
2022/06/09 06:37:06;;;;;;;8.98;3.47;;;;;;;13.96;100.00;101285.91;5030829;28;20044;-70
2022/06/09 06:39:32;;;;;;;8.02;3.45;;;;;;;13.96;100.00;101283.22;5031654;28;20037;-69
2022/06/09 06:41:57;;;;;;;10.10;3.28;;;;;;;13.97;100.00;101292.94;5031910;28;20033;-69
2022/06/09 06:44:23;;;;;;;11.32;3.67;;;;;;;14.11;100.00;101297.56;5013627;28;20036;-69
2022/06/09 06:46:48;;;;;;;7.43;3.42;;;;;;;14.11;100.00;101300.22;5027302;28;20127;-69
2022/06/09 06:49:13;;;;;;;6.05;3.50;;;;;;;14.19;100.00;101294.50;5015139;28;20060;-69
2022/06/09 06:51:39;;;;;;;9.57;3.60;;;;;;;14.22;100.00;101295.19;5016305;28;20121;-68
2022/06/09 06:54:05;;;;;;;9.20;3.78;;;;;;;14.28;100.00;101299.31;5030523;28;20037;-68
2022/06/09 06:56:32;;;;;;;11.05;3.65;;;;;;;14.34;100.00;101299.00;5028801;28;20033;-68
2022/06/09 06:58:58;;;;;;;9.18;3.92;;;;;;;14.46;100.00;101304.63;5038623;28;20037;-69
2022/06/09 07:01:24;;;;;;;8.50;3.33;;;;;;;14.62;100.00;101316.16;5027965;28;20474;-69
2022/06/09 07:03:49;;;;;;;8.50;4.00;;;;;;;14.79;100.00;101309.94;5034243;28;20481;-70
2022/06/09 07:06:15;;;;;;;8.65;3.38;;;;;;;14.97;100.00;101323.22;5029564;28;20452;-70
2022/06/09 07:08:40;;;;;;;9.02;3.22;;;;;;;15.05;100.00;101319.16;5030327;28;20493;-68
2022/06/09 07:11:07;;;;;;;7.68;3.42;;;;;;;15.18;100.00;101313.13;5028815;28;20036;-69
2022/06/09 07:13:32;;;;;;;11.63;3.00;;;;;;;15.25;100.00;101317.19;5035064;28;20096;-69
2022/06/09 07:15:58;;;;;;;7.05;3.10;;;;;;;15.21;100.00;101318.31;5036429;28;20105;-68
2022/06/09 07:18:23;;;;;;;11.20;3.30;;;;;;;15.31;100.00;101321.31;5036786;28;20026;-68
2022/06/09 07:20:49;;;;;;;10.15;2.78;;;;;;;15.44;100.00;101326.81;5035924;28;20037;-68
2022/06/09 07:23:14;;;;;;;11.30;2.88;;;;;;;15.64;100.00;101331.84;5017678;28;20033;-68
2022/06/09 07:25:39;;;;;;;9.13;3.30;;;;;;;16.00;100.00;101332.47;5022594;28;20021;-69
2022/06/09 07:28:06;;;;;;;9.40;2.33;;;;;;;16.10;100.00;101333.63;5028615;28;20116;-69
2022/06/09 07:30:31;;;;;;;7.10;2.65;;;;;;;16.29;100.00;101349.41;5037616;28;20388;-68
2022/06/09 07:32:57;;;;;;;9.52;2.17;;;;;;;16.44;100.00;101352.09;5037395;28;20100;-69
2022/06/09 07:35:31;;;;;;;7.18;2.28;;;;;;;16.60;100.00;101347.53;5036707;28;20029;-68
2022/06/09 07:37:56;;;;;;;7.13;2.00;;;;;;;16.93;100.00;101357.09;5033209;28;20495;-69
2022/06/09 07:40:22;;;;;;;11.02;2.97;;;;;;;17.11;100.00;101360.41;5049478;28;20057;-68
2022/06/09 07:42:48;;;;;;;8.68;2.13;;;;;;;17.36;100.00;101366.84;5029336;28;20060;-68
2022/06/09 07:45:16;;;;;;;6.88;1.90;;;;;;;17.51;100.00;101370.34;5033380;28;20396;-69
2022/06/09 07:47:41;;;;;;;9.35;2.10;;;;;;;17.55;98.06;101373.69;5043852;28;20499;-68
2022/06/09 07:50:08;;;;;;;7.25;1.80;;;;;;;17.59;95.87;101383.22;5037231;28;20025;-67
2022/06/09 07:52:33;;;;;;;7.28;1.70;;;;;;;17.71;96.11;101381.53;5036016;28;20539;-68
2022/06/09 07:54:59;;;;;;;6.25;2.00;;;;;;;17.67;95.81;101381.75;5037056;28;20061;-68
2022/06/09 07:57:24;;;;;;;6.82;1.95;;;;;;;17.69;98.61;101387.00;5037342;28;20112;-69
2022/06/09 07:59:49;;;;;;;7.75;2.30;;;;;;;17.71;95.85;101389.56;5035535;28;20477;-68
2022/06/09 08:02:15;;;;;;;8.07;2.33;;;;;;;17.66;92.85;101393.44;5036063;28;20064;-68
2022/06/09 08:04:40;;;;;;;6.65;2.10;;;;;;;17.54;95.55;101394.22;5032278;28;20030;-68
2022/06/09 08:07:06;;;;;;;8.48;2.05;;;;;;;17.64;94.86;101399.84;5027943;28;20057;-69
2022/06/09 08:09:32;;;;;;;7.70;1.95;;;;;;;17.81;94.75;101410.31;5029021;28;20527;-69
2022/06/09 08:11:57;;;;;;;7.97;2.30;;;;;;;17.95;93.85;101405.88;5036418;28;20031;-68
2022/06/09 08:14:23;;;;;;;7.80;2.20;;;;;;;17.98;95.99;101411.88;5034351;28;20040;-69
2022/06/09 08:16:48;;;;;;;4.32;1.58;;;;;;;18.08;93.38;101416.63;5036780;28;20041;-69
2022/06/09 08:19:14;;;;;;;6.60;1.80;;;;;;;17.90;93.30;101424.03;5035638;28;20094;-69
2022/06/09 08:21:39;;;;;;;5.22;1.77;;;;;;;17.95;91.68;101427.31;5036099;28;20065;-68
2022/06/09 08:24:06;;;;;;;10.02;1.98;;;;;;;18.01;90.17;101430.41;5035004;28;20021;-69
2022/06/09 08:26:32;;;;;;;4.88;1.75;;;;;;;18.25;92.37;101427.06;5032867;28;20036;-69
2022/06/09 08:28:58;;;;;;;8.43;2.05;;;;;;;18.57;88.06;101442.75;5032832;28;20381;-69
2022/06/09 08:31:23;;;;;;;9.45;2.50;;;;;;;18.40;90.16;101440.38;5030638;28;20466;-69
2022/06/09 08:33:49;;;;;;;9.43;2.00;;;;;;;18.11;88.11;101435.19;5032138;28;20108;-69
2022/06/09 08:46:39;;;;;;;6.78;2.05;;;;;;;19.71;83.69;101457.13;5029843;28;20068;-69
2022/06/09 08:49:09;;;;;;;6.72;1.90;;;;;;;19.99;84.14;101453.28;5029514;28;20401;-67
2022/06/09 08:51:42;;;;;;;7.82;2.03;;;;;;;21.03;78.77;101454.28;5031606;28;20068;-67
2022/06/09 08:54:20;;;;;;;6.22;1.95;;;;;;;21.52;74.86;101452.16;5032068;28;20032;-67
2022/06/09 08:56:48;;;;;;;7.47;2.10;;;;;;;22.47;71.24;101457.84;5033023;28;20032;-67
2022/06/09 08:59:18;;;;;;;8.43;2.42;;;;;;;22.57;72.68;101459.66;5032752;28;20065;-68
2022/06/09 09:01:48;;;;;;;10.50;2.38;;;;;;;23.59;68.80;101451.69;5032008;28;20037;-68
2022/06/09 09:04:34;;;;;;;6.57;1.95;;;;;;;24.44;61.45;101461.00;5031804;28;20100;-72
2022/06/09 09:07:05;;;;;;;8.90;2.30;;;;;;;24.60;51.89;101454.16;5033113;28;20409;-70
2022/06/09 09:09:35;;;;;;;9.25;2.35;;;;;;;23.58;53.91;101464.34;5032992;28;20094;-66
2022/06/09 09:12:15;;;;;;;9.02;2.40;;;;;;;23.58;59.33;101458.94;5032852;28;20065;-67
2022/06/09 09:14:54;;;;;;;6.45;2.30;;;;;;;23.98;55.38;101470.72;5031992;28;20079;-71
2022/06/09 09:17:34;;;;;;;8.68;2.08;;;;;;;23.45;54.79;101477.28;5032793;28;20087;-69
2022/06/09 09:20:22;;;;;;;7.93;2.30;;;;;;;23.58;53.05;101477.88;5020508;28;20026;-69
2022/06/09 09:23:11;;;;;;;7.15;2.20;;;;;;;23.69;53.85;101472.34;5046836;28;20041;-68
2022/06/09 09:25:44;;;;;;;9.20;2.30;;;;;;;24.05;53.77;101486.25;5021973;28;20124;-68
2022/06/09 09:28:19;;;;;;;8.93;2.20;;;;;;;24.72;51.47;101481.94;5022865;28;20044;-68
2022/06/09 09:31:09;;;;;;;7.93;2.22;;;;;;;24.97;46.23;101494.00;5026973;28;20049;-68
2022/06/09 09:33:35;;;;;;;5.97;1.90;;;;;;;23.66;51.74;101493.41;5026472;28;20021;-68
2022/06/09 09:36:06;;;;;;;7.97;1.95;;;;;;;23.30;55.53;101496.59;5031070;28;20036;-67
2022/06/09 09:38:38;;;;;;;9.45;2.13;;;;;;;23.36;53.34;101504.16;5030191;28;20472;-68
2022/06/09 09:41:05;;;;;;;7.47;2.30;;;;;;;23.86;55.12;101505.09;5030252;28;20452;-67
2022/06/09 09:43:39;;;;;;;9.90;2.35;;;;;;;23.14;53.79;101497.03;5030796;28;20032;-68
2022/06/09 09:46:20;;;;;;;8.77;2.42;;;;;;;22.53;55.96;101501.38;5027542;28;20044;-68
2022/06/09 09:48:46;;;;;;;7.60;2.20;;;;;;;23.35;53.85;101507.84;5031167;28;20026;-67
2022/06/09 09:51:13;;;;;;;12.38;2.72;;;;;;;23.81;51.45;101512.78;5032144;28;20036;-67
2022/06/09 09:53:45;;;;;;;6.68;2.20;;;;;;;24.03;55.20;101517.16;5030555;28;20063;-68
2022/06/09 09:56:14;;;;;;;6.57;2.00;;;;;;;24.55;53.27;101516.84;5030989;28;20029;-66
2022/06/09 09:58:48;;;;;;;6.80;2.28;;;;;;;24.18;48.74;101533.81;5029668;28;20443;-63
2022/06/09 10:01:17;;;;;;;8.50;2.03;;;;;;;23.53;51.64;101531.50;5026962;28;20048;-67
2022/06/09 10:09:37;;;;;;;12.70;2.83;;;;;;;24.29;49.09;101543.66;5032162;28;20079;-68
2022/06/09 10:12:23;;;;;;;9.55;2.13;;;;;;;24.75;47.97;101541.25;5031662;28;20033;-67
2022/06/09 10:15:12;;;;;;;7.20;2.30;;;;;;;24.73;47.36;101538.66;5035109;28;20042;-66
2022/06/09 10:17:52;;;;;;;4.47;1.80;;;;;;;24.40;47.34;101557.06;5032945;28;20497;-66
2022/06/09 10:21:16;;;;;;;8.70;2.13;;;;;;;23.34;52.63;101545.81;5031267;28;20032;-67
2022/06/09 10:24:04;;;;;;;8.30;2.47;;;;;;;24.28;48.71;101560.88;4963616;28;20038;-67
2022/06/09 10:26:35;;;;;;;9.52;2.55;;;;;;;24.49;47.88;101555.31;5027091;28;20477;-68
2022/06/09 10:29:05;;;;;;;7.70;2.33;;;;;;;24.65;46.67;101562.91;5031325;28;20472;-67
2022/06/09 10:31:43;;;;;;;11.05;2.80;;;;;;;25.13;46.80;101569.22;5030648;28;20049;-67
2022/06/09 10:34:49;;;;;;;7.88;2.40;;;;;;;25.40;47.37;101564.88;5030602;28;20515;-68
2022/06/09 10:37:39;;;;;;;8.45;2.30;;;;;;;25.22;45.18;101571.06;5026031;28;20029;-68
2022/06/09 10:40:13;;;;;;;11.88;2.50;;;;;;;25.50;45.60;101582.00;5026760;28;20021;-68
2022/06/09 10:42:52;;;;;;;9.65;2.42;;;;;;;25.53;45.17;101570.84;5035681;28;20036;-67
2022/06/09 10:45:20;;;;;;;9.85;2.20;;;;;;;25.38;43.25;101572.34;5044082;28;20505;-67
2022/06/09 10:57:02;;;;;;;7.28;2.60;;;;;;;24.89;47.01;101594.97;5032417;28;20451;-68
2022/06/09 10:59:39;;;;;;;7.20;2.38;;;;;;;25.26;45.09;101596.03;5036625;28;20499;-68
2022/06/09 11:02:13;;;;;;;10.77;2.75;;;;;;;24.85;45.92;101607.09;5031866;28;20025;-68
2022/06/09 11:04:38;;;;;;;9.18;2.60;;;;;;;24.51;51.03;101593.94;5028336;28;20067;-68
2022/06/09 11:07:12;;;;;;;8.02;2.75;;;;;;;24.46;47.44;101594.34;5020222;28;20045;-68
2022/06/09 11:09:44;;;;;;;8.32;2.58;;;;;;;24.05;51.56;101599.88;5025965;28;20033;-68
2022/06/09 11:12:35;;;;;;;10.07;2.58;;;;;;;23.65;49.53;101608.81;5033692;28;20037;-68
2022/06/09 11:15:25;;;;;;;7.97;2.42;;;;;;;23.40;51.53;101605.56;5034598;28;20053;-68
2022/06/09 11:18:00;;;;;;;7.45;2.58;;;;;;;23.92;50.51;101607.38;5032808;28;20038;-68
2022/06/09 11:20:46;;;;;;;11.02;2.63;;;;;;;23.72;50.18;101606.41;5030963;28;20104;-67
2022/06/09 11:23:30;;;;;;;10.02;2.88;;;;;;;24.01;47.72;101617.34;5028566;28;20055;-68
2022/06/09 11:25:56;;;;;;;10.02;2.45;;;;;;;23.54;50.20;101607.06;5034694;28;20502;-68
2022/06/09 11:28:53;;;;;;;10.40;2.70;;;;;;;23.03;52.81;101599.75;5030688;28;20124;-68
2022/06/09 11:31:38;;;;;;;8.18;2.72;;;;;;;23.26;53.67;101608.59;5024693;28;20028;-67
2022/06/09 11:34:13;;;;;;;9.60;2.83;;;;;;;24.27;50.71;101605.16;5022062;28;20107;-68
2022/06/09 11:36:45;;;;;;;11.35;2.50;;;;;;;24.48;47.97;101596.94;5030608;28;20389;-68
2022/06/09 11:39:28;;;;;;;10.05;2.70;;;;;;;24.44;47.79;101603.63;5029913;28;20172;-68
2022/06/09 11:42:34;;;;;;;8.18;2.60;;;;;;;24.68;47.24;101611.34;5028261;28;20500;-68
2022/06/09 11:45:12;;;;;;;11.80;2.50;;;;;;;24.84;44.33;101614.34;5023797;28;20049;-67
2022/06/09 11:47:38;;;;;;;10.55;2.80;;;;;;;24.76;46.24;101616.94;5026439;28;20029;-68
2022/06/09 11:50:07;;;;;;;8.20;2.75;;;;;;;24.38;44.32;101629.41;5028998;28;20120;-68
2022/06/09 11:52:42;;;;;;;11.45;2.92;;;;;;;24.22;47.15;101627.22;5029745;28;20022;-69
2022/06/09 11:55:57;;;;;;;10.55;2.60;;;;;;;24.05;49.25;101628.75;5030549;28;20024;-67
2022/06/09 11:58:33;;;;;;;10.70;2.53;;;;;;;23.75;47.17;101611.56;5025330;28;20408;-68
2022/06/09 12:01:29;;;;;;;8.00;2.47;;;;;;;23.94;48.36;101613.50;5049691;28;20025;-67
2022/06/09 12:04:25;;;;;;;9.80;2.75;;;;;;;24.52;44.92;101625.44;5033569;28;20037;-67